sensor_id;sensor_type;location;lat;lon;timestamp;P1;durP1;ratioP1;P2;durP2;ratioP2
62724;SDS011;49026;52.600;4.694;2024-01-30T00:00:07;20.25;;;13.05;;
62724;SDS011;49026;52.600;4.694;2024-01-30T00:02:33;18.65;;;10.57;;
62724;SDS011;49026;52.600;4.694;2024-01-30T00:04:58;23.10;;;12.80;;
62724;SDS011;49026;52.600;4.694;2024-01-30T00:07:31;19.88;;;11.20;;
62724;SDS011;49026;52.600;4.694;2024-01-30T00:09:59;25.80;;;10.27;;
62724;SDS011;49026;52.600;4.694;2024-01-30T00:12:24;21.60;;;13.57;;
62724;SDS011;49026;52.600;4.694;2024-01-30T00:14:50;23.50;;;11.48;;
62724;SDS011;49026;52.600;4.694;2024-01-30T00:17:15;22.05;;;12.30;;
62724;SDS011;49026;52.600;4.694;2024-01-30T00:19:40;22.73;;;12.32;;
62724;SDS011;49026;52.600;4.694;2024-01-30T00:22:08;21.92;;;12.20;;
62724;SDS011;49026;52.600;4.694;2024-01-30T00:24:33;20.92;;;11.48;;
62724;SDS011;49026;52.600;4.694;2024-01-30T00:26:59;27.23;;;14.40;;
62724;SDS011;49026;52.600;4.694;2024-01-30T00:29:24;20.05;;;13.18;;
62724;SDS011;49026;52.600;4.694;2024-01-30T00:31:54;25.23;;;14.13;;
62724;SDS011;49026;52.600;4.694;2024-01-30T00:34:19;22.10;;;14.15;;
62724;SDS011;49026;52.600;4.694;2024-01-30T00:36:45;31.80;;;15.48;;
62724;SDS011;49026;52.600;4.694;2024-01-30T00:39:12;22.35;;;13.23;;
62724;SDS011;49026;52.600;4.694;2024-01-30T00:41:41;28.80;;;17.05;;
62724;SDS011;49026;52.600;4.694;2024-01-30T00:44:06;24.55;;;15.45;;
62724;SDS011;49026;52.600;4.694;2024-01-30T00:46:31;21.58;;;13.35;;
62724;SDS011;49026;52.600;4.694;2024-01-30T00:48:57;22.77;;;13.85;;
62724;SDS011;49026;52.600;4.694;2024-01-30T00:51:24;21.88;;;11.82;;
62724;SDS011;49026;52.600;4.694;2024-01-30T00:53:52;24.23;;;12.45;;
62724;SDS011;49026;52.600;4.694;2024-01-30T00:56:17;23.10;;;12.95;;
62724;SDS011;49026;52.600;4.694;2024-01-30T00:58:44;21.80;;;12.48;;
62724;SDS011;49026;52.600;4.694;2024-01-30T01:01:10;19.10;;;11.30;;
62724;SDS011;49026;52.600;4.694;2024-01-30T01:03:37;24.05;;;13.15;;
62724;SDS011;49026;52.600;4.694;2024-01-30T01:06:02;22.75;;;12.32;;
62724;SDS011;49026;52.600;4.694;2024-01-30T01:08:28;22.42;;;12.15;;
62724;SDS011;49026;52.600;4.694;2024-01-30T01:10:53;21.02;;;12.52;;
62724;SDS011;49026;52.600;4.694;2024-01-30T01:13:18;19.58;;;12.48;;
62724;SDS011;49026;52.600;4.694;2024-01-30T01:15:44;19.73;;;11.57;;
62724;SDS011;49026;52.600;4.694;2024-01-30T01:18:09;22.55;;;12.95;;
62724;SDS011;49026;52.600;4.694;2024-01-30T01:20:34;19.95;;;12.32;;
62724;SDS011;49026;52.600;4.694;2024-01-30T01:23:00;21.63;;;11.63;;
62724;SDS011;49026;52.600;4.694;2024-01-30T01:25:25;18.77;;;11.35;;
62724;SDS011;49026;52.600;4.694;2024-01-30T01:27:50;24.23;;;12.70;;
62724;SDS011;49026;52.600;4.694;2024-01-30T01:30:18;15.70;;;9.15;;
62724;SDS011;49026;52.600;4.694;2024-01-30T01:32:50;24.70;;;11.32;;
62724;SDS011;49026;52.600;4.694;2024-01-30T01:35:23;19.65;;;10.98;;
62724;SDS011;49026;52.600;4.694;2024-01-30T01:37:52;19.75;;;12.65;;
62724;SDS011;49026;52.600;4.694;2024-01-30T01:40:25;22.40;;;11.00;;
62724;SDS011;49026;52.600;4.694;2024-01-30T01:42:51;23.25;;;12.10;;
62724;SDS011;49026;52.600;4.694;2024-01-30T01:45:19;22.67;;;12.77;;
62724;SDS011;49026;52.600;4.694;2024-01-30T01:47:45;18.73;;;11.25;;
62724;SDS011;49026;52.600;4.694;2024-01-30T01:50:13;21.55;;;11.70;;
62724;SDS011;49026;52.600;4.694;2024-01-30T01:52:43;21.60;;;10.82;;
62724;SDS011;49026;52.600;4.694;2024-01-30T01:55:11;20.98;;;12.35;;
62724;SDS011;49026;52.600;4.694;2024-01-30T01:57:38;22.48;;;10.98;;
62724;SDS011;49026;52.600;4.694;2024-01-30T02:00:03;16.17;;;10.63;;
62724;SDS011;49026;52.600;4.694;2024-01-30T02:02:34;18.40;;;10.68;;
62724;SDS011;49026;52.600;4.694;2024-01-30T02:05:03;18.40;;;10.50;;
62724;SDS011;49026;52.600;4.694;2024-01-30T02:07:29;18.33;;;10.63;;
62724;SDS011;49026;52.600;4.694;2024-01-30T02:09:54;20.33;;;10.63;;
62724;SDS011;49026;52.600;4.694;2024-01-30T02:12:20;16.77;;;10.57;;
62724;SDS011;49026;52.600;4.694;2024-01-30T02:14:48;25.77;;;11.70;;
62724;SDS011;49026;52.600;4.694;2024-01-30T02:17:15;21.27;;;11.10;;
62724;SDS011;49026;52.600;4.694;2024-01-30T02:19:41;19.05;;;11.00;;
62724;SDS011;49026;52.600;4.694;2024-01-30T02:22:06;15.55;;;10.25;;
62724;SDS011;49026;52.600;4.694;2024-01-30T02:24:32;17.08;;;11.07;;
62724;SDS011;49026;52.600;4.694;2024-01-30T02:26:58;16.58;;;10.45;;
62724;SDS011;49026;52.600;4.694;2024-01-30T02:29:25;21.88;;;11.82;;
62724;SDS011;49026;52.600;4.694;2024-01-30T02:31:51;19.00;;;11.40;;
62724;SDS011;49026;52.600;4.694;2024-01-30T02:34:17;19.83;;;10.65;;
62724;SDS011;49026;52.600;4.694;2024-01-30T02:36:44;15.77;;;10.32;;
62724;SDS011;49026;52.600;4.694;2024-01-30T02:39:09;21.08;;;11.75;;
62724;SDS011;49026;52.600;4.694;2024-01-30T02:41:35;18.70;;;10.43;;
62724;SDS011;49026;52.600;4.694;2024-01-30T02:44:00;18.48;;;11.18;;
62724;SDS011;49026;52.600;4.694;2024-01-30T02:46:26;19.58;;;9.38;;
62724;SDS011;49026;52.600;4.694;2024-01-30T02:48:56;18.30;;;10.45;;
62724;SDS011;49026;52.600;4.694;2024-01-30T02:51:22;14.90;;;9.35;;
62724;SDS011;49026;52.600;4.694;2024-01-30T02:53:47;17.20;;;10.68;;
62724;SDS011;49026;52.600;4.694;2024-01-30T02:56:12;18.58;;;10.88;;
62724;SDS011;49026;52.600;4.694;2024-01-30T02:58:38;14.27;;;7.43;;
62724;SDS011;49026;52.600;4.694;2024-01-30T03:01:04;22.38;;;13.45;;
62724;SDS011;49026;52.600;4.694;2024-01-30T03:03:30;16.63;;;10.52;;
62724;SDS011;49026;52.600;4.694;2024-01-30T03:05:55;15.80;;;9.98;;
62724;SDS011;49026;52.600;4.694;2024-01-30T03:08:20;13.98;;;9.32;;
62724;SDS011;49026;52.600;4.694;2024-01-30T03:10:48;21.40;;;12.65;;
62724;SDS011;49026;52.600;4.694;2024-01-30T03:13:13;23.88;;;13.07;;
62724;SDS011;49026;52.600;4.694;2024-01-30T03:15:41;19.00;;;12.77;;
62724;SDS011;49026;52.600;4.694;2024-01-30T03:18:06;21.60;;;12.45;;
62724;SDS011;49026;52.600;4.694;2024-01-30T03:20:32;18.10;;;10.10;;
62724;SDS011;49026;52.600;4.694;2024-01-30T03:22:59;15.98;;;10.30;;
62724;SDS011;49026;52.600;4.694;2024-01-30T03:25:25;21.80;;;11.93;;
62724;SDS011;49026;52.600;4.694;2024-01-30T03:27:50;21.70;;;11.98;;
62724;SDS011;49026;52.600;4.694;2024-01-30T03:30:16;16.20;;;10.10;;
62724;SDS011;49026;52.600;4.694;2024-01-30T03:32:41;23.40;;;12.57;;
62724;SDS011;49026;52.600;4.694;2024-01-30T03:35:06;20.85;;;12.45;;
62724;SDS011;49026;52.600;4.694;2024-01-30T03:37:32;18.05;;;11.00;;
62724;SDS011;49026;52.600;4.694;2024-01-30T03:40:00;18.38;;;10.73;;
62724;SDS011;49026;52.600;4.694;2024-01-30T03:42:26;16.48;;;10.45;;
62724;SDS011;49026;52.600;4.694;2024-01-30T03:44:51;16.88;;;10.38;;
62724;SDS011;49026;52.600;4.694;2024-01-30T03:47:18;21.73;;;11.90;;
62724;SDS011;49026;52.600;4.694;2024-01-30T03:49:47;18.63;;;8.82;;
62724;SDS011;49026;52.600;4.694;2024-01-30T03:52:12;14.60;;;9.18;;
62724;SDS011;49026;52.600;4.694;2024-01-30T03:54:37;20.88;;;10.45;;
62724;SDS011;49026;52.600;4.694;2024-01-30T03:57:03;17.90;;;10.15;;
62724;SDS011;49026;52.600;4.694;2024-01-30T03:59:28;16.92;;;9.40;;
62724;SDS011;49026;52.600;4.694;2024-01-30T04:01:56;21.80;;;11.90;;
62724;SDS011;49026;52.600;4.694;2024-01-30T04:04:21;16.70;;;9.85;;
62724;SDS011;49026;52.600;4.694;2024-01-30T04:06:46;19.48;;;10.48;;
62724;SDS011;49026;52.600;4.694;2024-01-30T04:09:12;14.30;;;8.27;;
62724;SDS011;49026;52.600;4.694;2024-01-30T04:11:38;16.15;;;10.20;;
62724;SDS011;49026;52.600;4.694;2024-01-30T04:14:06;16.73;;;9.45;;
62724;SDS011;49026;52.600;4.694;2024-01-30T04:16:32;16.90;;;10.90;;
62724;SDS011;49026;52.600;4.694;2024-01-30T04:18:59;16.02;;;10.55;;
62724;SDS011;49026;52.600;4.694;2024-01-30T04:21:25;19.95;;;11.88;;
62724;SDS011;49026;52.600;4.694;2024-01-30T04:23:53;14.80;;;8.70;;
62724;SDS011;49026;52.600;4.694;2024-01-30T04:26:18;18.02;;;10.63;;
62724;SDS011;49026;52.600;4.694;2024-01-30T04:28:44;16.65;;;8.82;;
62724;SDS011;49026;52.600;4.694;2024-01-30T04:31:10;13.55;;;9.30;;
62724;SDS011;49026;52.600;4.694;2024-01-30T04:33:38;16.48;;;9.65;;
62724;SDS011;49026;52.600;4.694;2024-01-30T04:36:03;15.27;;;9.52;;
62724;SDS011;49026;52.600;4.694;2024-01-30T04:38:33;17.88;;;9.48;;
62724;SDS011;49026;52.600;4.694;2024-01-30T04:40:59;14.32;;;9.85;;
62724;SDS011;49026;52.600;4.694;2024-01-30T04:43:24;17.83;;;9.68;;
62724;SDS011;49026;52.600;4.694;2024-01-30T04:45:51;16.08;;;9.70;;
62724;SDS011;49026;52.600;4.694;2024-01-30T04:48:18;17.00;;;9.05;;
62724;SDS011;49026;52.600;4.694;2024-01-30T04:50:44;15.68;;;9.68;;
62724;SDS011;49026;52.600;4.694;2024-01-30T04:53:09;14.23;;;8.68;;
62724;SDS011;49026;52.600;4.694;2024-01-30T04:55:37;14.35;;;7.57;;
62724;SDS011;49026;52.600;4.694;2024-01-30T04:58:02;17.08;;;8.95;;
62724;SDS011;49026;52.600;4.694;2024-01-30T05:00:27;15.95;;;9.82;;
62724;SDS011;49026;52.600;4.694;2024-01-30T05:02:55;17.65;;;9.45;;
62724;SDS011;49026;52.600;4.694;2024-01-30T05:05:20;17.85;;;9.75;;
62724;SDS011;49026;52.600;4.694;2024-01-30T05:07:48;22.95;;;10.95;;
62724;SDS011;49026;52.600;4.694;2024-01-30T05:10:14;15.55;;;10.00;;
62724;SDS011;49026;52.600;4.694;2024-01-30T05:12:39;12.50;;;8.00;;
62724;SDS011;49026;52.600;4.694;2024-01-30T05:15:05;17.05;;;9.80;;
62724;SDS011;49026;52.600;4.694;2024-01-30T05:17:31;12.85;;;7.25;;
62724;SDS011;49026;52.600;4.694;2024-01-30T05:19:56;16.23;;;8.70;;
62724;SDS011;49026;52.600;4.694;2024-01-30T05:22:24;18.08;;;10.80;;
62724;SDS011;49026;52.600;4.694;2024-01-30T05:24:50;16.15;;;9.68;;
62724;SDS011;49026;52.600;4.694;2024-01-30T05:27:15;18.42;;;9.98;;
62724;SDS011;49026;52.600;4.694;2024-01-30T05:29:40;15.88;;;10.23;;
62724;SDS011;49026;52.600;4.694;2024-01-30T05:32:08;16.50;;;11.40;;
62724;SDS011;49026;52.600;4.694;2024-01-30T05:34:36;13.85;;;8.55;;
62724;SDS011;49026;52.600;4.694;2024-01-30T05:37:01;20.77;;;10.57;;
62724;SDS011;49026;52.600;4.694;2024-01-30T05:39:27;15.45;;;10.05;;
62724;SDS011;49026;52.600;4.694;2024-01-30T05:41:52;15.05;;;9.77;;
62724;SDS011;49026;52.600;4.694;2024-01-30T05:44:17;17.95;;;9.68;;
62724;SDS011;49026;52.600;4.694;2024-01-30T05:46:42;16.98;;;10.02;;
62724;SDS011;49026;52.600;4.694;2024-01-30T05:49:08;18.50;;;10.95;;
62724;SDS011;49026;52.600;4.694;2024-01-30T05:51:33;18.38;;;10.35;;
62724;SDS011;49026;52.600;4.694;2024-01-30T05:53:58;19.25;;;9.20;;
62724;SDS011;49026;52.600;4.694;2024-01-30T05:56:24;15.88;;;8.48;;
62724;SDS011;49026;52.600;4.694;2024-01-30T05:58:49;12.00;;;7.05;;
62724;SDS011;49026;52.600;4.694;2024-01-30T06:01:15;17.90;;;11.32;;
62724;SDS011;49026;52.600;4.694;2024-01-30T06:03:43;20.13;;;10.35;;
62724;SDS011;49026;52.600;4.694;2024-01-30T06:06:08;14.68;;;8.48;;
62724;SDS011;49026;52.600;4.694;2024-01-30T06:08:34;14.50;;;9.55;;
62724;SDS011;49026;52.600;4.694;2024-01-30T06:10:59;20.65;;;11.05;;
62724;SDS011;49026;52.600;4.694;2024-01-30T06:13:25;18.35;;;9.18;;
62724;SDS011;49026;52.600;4.694;2024-01-30T06:15:53;12.55;;;8.60;;
62724;SDS011;49026;52.600;4.694;2024-01-30T06:18:19;13.10;;;8.70;;
62724;SDS011;49026;52.600;4.694;2024-01-30T06:20:45;13.20;;;7.82;;
62724;SDS011;49026;52.600;4.694;2024-01-30T06:23:13;17.83;;;9.05;;
62724;SDS011;49026;52.600;4.694;2024-01-30T06:25:39;19.08;;;9.95;;
62724;SDS011;49026;52.600;4.694;2024-01-30T06:28:04;17.77;;;8.73;;
62724;SDS011;49026;52.600;4.694;2024-01-30T06:30:30;17.02;;;9.32;;
62724;SDS011;49026;52.600;4.694;2024-01-30T06:32:55;15.98;;;8.98;;
62724;SDS011;49026;52.600;4.694;2024-01-30T06:35:21;15.30;;;9.10;;
62724;SDS011;49026;52.600;4.694;2024-01-30T06:37:46;14.98;;;9.50;;
62724;SDS011;49026;52.600;4.694;2024-01-30T06:40:12;17.13;;;8.20;;
62724;SDS011;49026;52.600;4.694;2024-01-30T06:42:39;18.00;;;10.55;;
62724;SDS011;49026;52.600;4.694;2024-01-30T06:45:05;15.95;;;8.88;;
62724;SDS011;49026;52.600;4.694;2024-01-30T06:47:30;20.52;;;10.35;;
62724;SDS011;49026;52.600;4.694;2024-01-30T06:49:56;18.10;;;9.10;;
62724;SDS011;49026;52.600;4.694;2024-01-30T06:52:21;20.52;;;9.15;;
62724;SDS011;49026;52.600;4.694;2024-01-30T06:54:49;14.40;;;9.00;;
62724;SDS011;49026;52.600;4.694;2024-01-30T06:57:14;17.00;;;8.73;;
62724;SDS011;49026;52.600;4.694;2024-01-30T06:59:42;14.60;;;8.98;;
62724;SDS011;49026;52.600;4.694;2024-01-30T07:02:12;17.15;;;8.75;;
62724;SDS011;49026;52.600;4.694;2024-01-30T07:04:37;18.45;;;9.05;;
62724;SDS011;49026;52.600;4.694;2024-01-30T07:07:04;18.40;;;8.85;;
62724;SDS011;49026;52.600;4.694;2024-01-30T07:09:30;16.60;;;7.70;;
62724;SDS011;49026;52.600;4.694;2024-01-30T07:11:59;18.67;;;8.40;;
62724;SDS011;49026;52.600;4.694;2024-01-30T07:14:24;20.00;;;8.02;;
62724;SDS011;49026;52.600;4.694;2024-01-30T07:16:50;20.92;;;7.90;;
62724;SDS011;49026;52.600;4.694;2024-01-30T07:19:15;19.60;;;7.78;;
62724;SDS011;49026;52.600;4.694;2024-01-30T07:21:41;18.52;;;8.02;;
62724;SDS011;49026;52.600;4.694;2024-01-30T07:24:06;21.30;;;7.82;;
62724;SDS011;49026;52.600;4.694;2024-01-30T07:26:31;15.10;;;7.70;;
62724;SDS011;49026;52.600;4.694;2024-01-30T07:28:57;14.27;;;8.27;;
62724;SDS011;49026;52.600;4.694;2024-01-30T07:31:25;17.73;;;8.48;;
62724;SDS011;49026;52.600;4.694;2024-01-30T07:33:50;17.05;;;7.25;;
62724;SDS011;49026;52.600;4.694;2024-01-30T07:36:15;18.23;;;7.93;;
62724;SDS011;49026;52.600;4.694;2024-01-30T07:38:40;16.88;;;8.07;;
62724;SDS011;49026;52.600;4.694;2024-01-30T07:41:06;14.07;;;7.90;;
62724;SDS011;49026;52.600;4.694;2024-01-30T07:43:31;15.98;;;8.50;;
62724;SDS011;49026;52.600;4.694;2024-01-30T07:45:56;24.52;;;8.85;;
62724;SDS011;49026;52.600;4.694;2024-01-30T07:48:25;13.27;;;6.57;;
62724;SDS011;49026;52.600;4.694;2024-01-30T07:50:51;16.70;;;8.00;;
62724;SDS011;49026;52.600;4.694;2024-01-30T07:53:16;17.27;;;7.50;;
62724;SDS011;49026;52.600;4.694;2024-01-30T07:55:44;22.05;;;8.50;;
62724;SDS011;49026;52.600;4.694;2024-01-30T07:58:11;18.33;;;8.27;;
62724;SDS011;49026;52.600;4.694;2024-01-30T08:00:39;18.80;;;7.78;;
62724;SDS011;49026;52.600;4.694;2024-01-30T08:03:07;14.98;;;7.20;;
62724;SDS011;49026;52.600;4.694;2024-01-30T08:05:35;17.08;;;8.00;;
62724;SDS011;49026;52.600;4.694;2024-01-30T08:08:00;20.40;;;8.82;;
62724;SDS011;49026;52.600;4.694;2024-01-30T08:10:25;21.15;;;8.68;;
62724;SDS011;49026;52.600;4.694;2024-01-30T08:12:51;23.83;;;9.23;;
62724;SDS011;49026;52.600;4.694;2024-01-30T08:15:16;20.38;;;8.52;;
62724;SDS011;49026;52.600;4.694;2024-01-30T08:17:41;17.30;;;7.63;;
62724;SDS011;49026;52.600;4.694;2024-01-30T08:20:07;21.42;;;9.02;;
62724;SDS011;49026;52.600;4.694;2024-01-30T08:22:38;18.73;;;9.00;;
62724;SDS011;49026;52.600;4.694;2024-01-30T08:25:07;20.48;;;8.98;;
62724;SDS011;49026;52.600;4.694;2024-01-30T08:27:32;17.42;;;7.18;;
62724;SDS011;49026;52.600;4.694;2024-01-30T08:30:00;20.33;;;7.25;;
62724;SDS011;49026;52.600;4.694;2024-01-30T08:32:25;10.32;;;6.30;;
62724;SDS011;49026;52.600;4.694;2024-01-30T08:34:51;16.75;;;6.88;;
62724;SDS011;49026;52.600;4.694;2024-01-30T08:37:16;14.82;;;6.57;;
62724;SDS011;49026;52.600;4.694;2024-01-30T08:39:43;21.38;;;7.82;;
62724;SDS011;49026;52.600;4.694;2024-01-30T08:42:13;21.55;;;6.80;;
62724;SDS011;49026;52.600;4.694;2024-01-30T08:44:38;15.40;;;5.97;;
62724;SDS011;49026;52.600;4.694;2024-01-30T08:47:04;18.73;;;7.28;;
62724;SDS011;49026;52.600;4.694;2024-01-30T08:49:29;23.05;;;6.20;;
62724;SDS011;49026;52.600;4.694;2024-01-30T08:51:55;17.95;;;5.90;;
62724;SDS011;49026;52.600;4.694;2024-01-30T08:54:20;25.45;;;7.50;;
62724;SDS011;49026;52.600;4.694;2024-01-30T08:56:45;14.68;;;5.88;;
62724;SDS011;49026;52.600;4.694;2024-01-30T08:59:11;17.52;;;5.75;;
62724;SDS011;49026;52.600;4.694;2024-01-30T09:01:36;14.48;;;5.20;;
62724;SDS011;49026;52.600;4.694;2024-01-30T09:04:01;22.23;;;6.03;;
62724;SDS011;49026;52.600;4.694;2024-01-30T09:06:26;16.08;;;4.80;;
62724;SDS011;49026;52.600;4.694;2024-01-30T09:08:53;25.73;;;5.47;;
62724;SDS011;49026;52.600;4.694;2024-01-30T09:11:22;18.20;;;4.95;;
62724;SDS011;49026;52.600;4.694;2024-01-30T09:13:48;21.88;;;3.85;;
62724;SDS011;49026;52.600;4.694;2024-01-30T09:16:13;18.95;;;5.40;;
62724;SDS011;49026;52.600;4.694;2024-01-30T09:18:43;18.67;;;5.82;;
62724;SDS011;49026;52.600;4.694;2024-01-30T09:21:08;18.23;;;4.60;;
62724;SDS011;49026;52.600;4.694;2024-01-30T09:23:36;33.00;;;6.28;;
62724;SDS011;49026;52.600;4.694;2024-01-30T09:26:01;28.17;;;5.85;;
62724;SDS011;49026;52.600;4.694;2024-01-30T09:28:29;52.83;;;6.43;;
62724;SDS011;49026;52.600;4.694;2024-01-30T09:30:54;26.08;;;6.47;;
62724;SDS011;49026;52.600;4.694;2024-01-30T09:33:19;23.83;;;4.70;;
62724;SDS011;49026;52.600;4.694;2024-01-30T09:35:47;19.48;;;4.65;;
62724;SDS011;49026;52.600;4.694;2024-01-30T09:38:15;22.75;;;5.20;;
62724;SDS011;49026;52.600;4.694;2024-01-30T09:40:40;21.27;;;4.00;;
62724;SDS011;49026;52.600;4.694;2024-01-30T09:43:09;13.88;;;3.63;;
62724;SDS011;49026;52.600;4.694;2024-01-30T09:45:42;26.20;;;4.63;;
62724;SDS011;49026;52.600;4.694;2024-01-30T09:48:10;15.75;;;3.25;;
62724;SDS011;49026;52.600;4.694;2024-01-30T09:50:36;26.50;;;3.83;;
62724;SDS011;49026;52.600;4.694;2024-01-30T09:53:02;19.92;;;3.80;;
62724;SDS011;49026;52.600;4.694;2024-01-30T09:55:29;20.48;;;3.95;;
62724;SDS011;49026;52.600;4.694;2024-01-30T09:57:54;62.80;;;4.55;;
62724;SDS011;49026;52.600;4.694;2024-01-30T10:00:19;27.85;;;4.63;;
62724;SDS011;49026;52.600;4.694;2024-01-30T10:02:45;29.92;;;4.20;;
62724;SDS011;49026;52.600;4.694;2024-01-30T10:05:11;26.50;;;3.50;;
62724;SDS011;49026;52.600;4.694;2024-01-30T10:07:49;19.08;;;3.33;;
62724;SDS011;49026;52.600;4.694;2024-01-30T10:10:19;21.80;;;2.67;;
62724;SDS011;49026;52.600;4.694;2024-01-30T10:12:50;25.50;;;3.00;;
62724;SDS011;49026;52.600;4.694;2024-01-30T10:15:17;18.15;;;2.72;;
62724;SDS011;49026;52.600;4.694;2024-01-30T10:17:44;16.63;;;2.85;;
62724;SDS011;49026;52.600;4.694;2024-01-30T10:20:10;23.38;;;2.90;;
62724;SDS011;49026;52.600;4.694;2024-01-30T10:22:38;27.67;;;3.15;;
62724;SDS011;49026;52.600;4.694;2024-01-30T10:25:04;16.63;;;1.88;;
62724;SDS011;49026;52.600;4.694;2024-01-30T10:27:30;26.63;;;2.63;;
62724;SDS011;49026;52.600;4.694;2024-01-30T10:29:58;13.57;;;2.13;;
62724;SDS011;49026;52.600;4.694;2024-01-30T10:32:27;19.15;;;2.40;;
62724;SDS011;49026;52.600;4.694;2024-01-30T10:34:52;14.07;;;1.88;;
62724;SDS011;49026;52.600;4.694;2024-01-30T10:37:17;8.85;;;1.10;;
62724;SDS011;49026;52.600;4.694;2024-01-30T10:39:49;24.77;;;2.33;;
62724;SDS011;49026;52.600;4.694;2024-01-30T10:42:18;13.95;;;1.83;;
62724;SDS011;49026;52.600;4.694;2024-01-30T10:45:06;17.48;;;2.10;;
62724;SDS011;49026;52.600;4.694;2024-01-30T10:47:42;21.75;;;2.20;;
62724;SDS011;49026;52.600;4.694;2024-01-30T10:50:09;10.18;;;1.55;;
62724;SDS011;49026;52.600;4.694;2024-01-30T10:52:35;16.40;;;2.58;;
62724;SDS011;49026;52.600;4.694;2024-01-30T10:55:01;11.07;;;1.98;;
62724;SDS011;49026;52.600;4.694;2024-01-30T10:57:33;9.32;;;1.73;;
62724;SDS011;49026;52.600;4.694;2024-01-30T11:00:00;12.85;;;1.83;;
62724;SDS011;49026;52.600;4.694;2024-01-30T11:02:32;37.15;;;2.50;;
62724;SDS011;49026;52.600;4.694;2024-01-30T11:04:59;13.15;;;1.52;;
62724;SDS011;49026;52.600;4.694;2024-01-30T11:07:27;10.32;;;1.63;;
62724;SDS011;49026;52.600;4.694;2024-01-30T11:12:26;15.40;;;1.90;;
62724;SDS011;49026;52.600;4.694;2024-01-30T11:15:08;19.87;;;2.40;;
62724;SDS011;49026;52.600;4.694;2024-01-30T11:20:25;17.08;;;2.38;;
62724;SDS011;49026;52.600;4.694;2024-01-30T11:22:52;12.90;;;2.50;;
62724;SDS011;49026;52.600;4.694;2024-01-30T11:25:23;15.55;;;2.55;;
62724;SDS011;49026;52.600;4.694;2024-01-30T11:27:50;20.98;;;2.50;;
62724;SDS011;49026;52.600;4.694;2024-01-30T11:30:23;11.10;;;2.28;;
62724;SDS011;49026;52.600;4.694;2024-01-30T11:33:01;13.68;;;2.33;;
62724;SDS011;49026;52.600;4.694;2024-01-30T11:35:32;16.02;;;3.17;;
62724;SDS011;49026;52.600;4.694;2024-01-30T11:37:58;17.05;;;2.67;;
62724;SDS011;49026;52.600;4.694;2024-01-30T11:40:26;17.85;;;2.45;;
62724;SDS011;49026;52.600;4.694;2024-01-30T11:42:53;16.08;;;3.33;;
62724;SDS011;49026;52.600;4.694;2024-01-30T11:45:20;18.67;;;2.88;;
62724;SDS011;49026;52.600;4.694;2024-01-30T11:47:45;21.42;;;3.20;;
62724;SDS011;49026;52.600;4.694;2024-01-30T11:50:10;25.75;;;3.13;;
62724;SDS011;49026;52.600;4.694;2024-01-30T11:52:38;16.08;;;3.08;;
62724;SDS011;49026;52.600;4.694;2024-01-30T11:55:04;23.27;;;2.33;;
62724;SDS011;49026;52.600;4.694;2024-01-30T11:57:32;14.10;;;2.92;;
62724;SDS011;49026;52.600;4.694;2024-01-30T11:59:59;17.42;;;2.30;;
62724;SDS011;49026;52.600;4.694;2024-01-30T12:02:24;16.90;;;2.53;;
62724;SDS011;49026;52.600;4.694;2024-01-30T12:04:50;17.45;;;2.72;;
62724;SDS011;49026;52.600;4.694;2024-01-30T12:07:15;21.02;;;3.67;;
62724;SDS011;49026;52.600;4.694;2024-01-30T12:09:41;20.27;;;2.85;;
62724;SDS011;49026;52.600;4.694;2024-01-30T12:12:07;15.25;;;2.10;;
62724;SDS011;49026;52.600;4.694;2024-01-30T12:14:37;19.95;;;2.85;;
62724;SDS011;49026;52.600;4.694;2024-01-30T12:17:04;16.58;;;2.63;;
62724;SDS011;49026;52.600;4.694;2024-01-30T12:19:29;25.65;;;3.15;;
62724;SDS011;49026;52.600;4.694;2024-01-30T12:21:55;22.55;;;2.83;;
62724;SDS011;49026;52.600;4.694;2024-01-30T12:24:23;23.60;;;2.78;;
62724;SDS011;49026;52.600;4.694;2024-01-30T12:26:49;24.45;;;3.30;;
62724;SDS011;49026;52.600;4.694;2024-01-30T12:29:15;13.90;;;2.08;;
62724;SDS011;49026;52.600;4.694;2024-01-30T12:31:41;20.02;;;4.50;;
62724;SDS011;49026;52.600;4.694;2024-01-30T12:34:07;16.58;;;3.20;;
62724;SDS011;49026;52.600;4.694;2024-01-30T12:36:32;17.05;;;3.00;;
62724;SDS011;49026;52.600;4.694;2024-01-30T12:39:01;13.75;;;2.85;;
62724;SDS011;49026;52.600;4.694;2024-01-30T12:41:26;20.88;;;3.00;;
62724;SDS011;49026;52.600;4.694;2024-01-30T12:43:56;14.50;;;2.35;;
62724;SDS011;49026;52.600;4.694;2024-01-30T12:46:26;22.05;;;2.50;;
62724;SDS011;49026;52.600;4.694;2024-01-30T12:48:54;22.58;;;2.78;;
62724;SDS011;49026;52.600;4.694;2024-01-30T12:51:19;5.97;;;1.58;;
62724;SDS011;49026;52.600;4.694;2024-01-30T12:53:45;22.85;;;3.38;;
62724;SDS011;49026;52.600;4.694;2024-01-30T12:56:12;19.15;;;2.40;;
62724;SDS011;49026;52.600;4.694;2024-01-30T12:58:38;60.47;;;4.63;;
62724;SDS011;49026;52.600;4.694;2024-01-30T13:01:05;12.75;;;2.92;;
62724;SDS011;49026;52.600;4.694;2024-01-30T13:03:31;16.13;;;2.50;;
62724;SDS011;49026;52.600;4.694;2024-01-30T13:05:56;9.80;;;2.03;;
62724;SDS011;49026;52.600;4.694;2024-01-30T13:08:22;11.70;;;1.67;;
62724;SDS011;49026;52.600;4.694;2024-01-30T13:10:49;6.38;;;1.88;;
62724;SDS011;49026;52.600;4.694;2024-01-30T13:13:15;60.30;;;3.45;;
62724;SDS011;49026;52.600;4.694;2024-01-30T13:15:43;98.93;;;5.13;;
62724;SDS011;49026;52.600;4.694;2024-01-30T13:18:08;21.38;;;2.00;;
62724;SDS011;49026;52.600;4.694;2024-01-30T13:20:36;10.35;;;1.90;;
62724;SDS011;49026;52.600;4.694;2024-01-30T13:23:03;14.60;;;2.58;;
62724;SDS011;49026;52.600;4.694;2024-01-30T13:25:29;11.32;;;2.95;;
62724;SDS011;49026;52.600;4.694;2024-01-30T13:27:54;8.48;;;1.75;;
62724;SDS011;49026;52.600;4.694;2024-01-30T13:30:20;17.23;;;2.17;;
62724;SDS011;49026;52.600;4.694;2024-01-30T13:32:48;14.20;;;2.35;;
62724;SDS011;49026;52.600;4.694;2024-01-30T13:35:13;10.77;;;3.10;;
62724;SDS011;49026;52.600;4.694;2024-01-30T13:37:40;29.05;;;3.78;;
62724;SDS011;49026;52.600;4.694;2024-01-30T13:40:07;27.70;;;3.28;;
62724;SDS011;49026;52.600;4.694;2024-01-30T13:42:38;40.25;;;3.55;;
62724;SDS011;49026;52.600;4.694;2024-01-30T13:45:04;27.50;;;3.63;;
62724;SDS011;49026;52.600;4.694;2024-01-30T13:47:29;21.27;;;3.38;;
62724;SDS011;49026;52.600;4.694;2024-01-30T13:49:55;15.07;;;4.00;;
62724;SDS011;49026;52.600;4.694;2024-01-30T13:52:20;19.13;;;3.83;;
62724;SDS011;49026;52.600;4.694;2024-01-30T13:54:45;24.35;;;4.00;;
62724;SDS011;49026;52.600;4.694;2024-01-30T13:57:13;13.75;;;4.55;;
62724;SDS011;49026;52.600;4.694;2024-01-30T13:59:38;24.77;;;5.72;;
62724;SDS011;49026;52.600;4.694;2024-01-30T14:02:04;104.82;;;8.43;;
62724;SDS011;49026;52.600;4.694;2024-01-30T14:04:31;54.28;;;6.43;;
62724;SDS011;49026;52.600;4.694;2024-01-30T14:06:57;41.22;;;5.97;;
62724;SDS011;49026;52.600;4.694;2024-01-30T14:09:22;24.52;;;5.07;;
62724;SDS011;49026;52.600;4.694;2024-01-30T14:11:50;26.35;;;6.20;;
62724;SDS011;49026;52.600;4.694;2024-01-30T14:14:15;24.33;;;5.85;;
62724;SDS011;49026;52.600;4.694;2024-01-30T14:16:43;19.52;;;5.93;;
62724;SDS011;49026;52.600;4.694;2024-01-30T14:19:08;29.35;;;6.85;;
62724;SDS011;49026;52.600;4.694;2024-01-30T14:21:33;23.23;;;6.35;;
62724;SDS011;49026;52.600;4.694;2024-01-30T14:23:59;25.48;;;7.10;;
62724;SDS011;49026;52.600;4.694;2024-01-30T14:26:24;66.80;;;7.50;;
62724;SDS011;49026;52.600;4.694;2024-01-30T14:28:49;36.40;;;6.32;;
62724;SDS011;49026;52.600;4.694;2024-01-30T14:31:15;17.33;;;5.07;;